createdAt,value
2023-01-13T00:01:00.021Z,100.00
2023-01-13T00:03:26.647Z,100.00
2023-01-13T00:05:53.323Z,100.00
2023-01-13T00:08:19.988Z,100.00
2023-01-13T00:10:48.527Z,100.00
2023-01-13T00:13:15.361Z,100.00
2023-01-13T00:15:42.423Z,100.00
2023-01-13T00:18:09.337Z,100.00
2023-01-13T00:20:36.118Z,100.00
2023-01-13T00:23:04.527Z,100.00
2023-01-13T00:25:31.237Z,100.00
2023-01-13T00:27:58.017Z,100.00
2023-01-13T00:30:24.647Z,100.00
2023-01-13T00:32:51.269Z,100.00
2023-01-13T00:35:18.099Z,100.00
2023-01-13T00:37:44.811Z,100.00
2023-01-13T00:40:12.085Z,100.00
2023-01-13T00:42:57.263Z,100.00
2023-01-13T00:45:24.035Z,100.00
2023-01-13T00:47:50.655Z,100.00
2023-01-13T00:50:17.445Z,100.00
2023-01-13T00:52:44.239Z,100.00
2023-01-13T00:55:10.963Z,100.00
2023-01-13T00:57:37.678Z,100.00
2023-01-13T01:00:04.889Z,100.00
2023-01-13T01:02:31.615Z,100.00
2023-01-13T01:05:00.185Z,100.00
2023-01-13T01:07:26.862Z,100.00
2023-01-13T01:09:53.494Z,100.00
2023-01-13T01:12:20.194Z,100.00
2023-01-13T01:14:46.927Z,100.00
2023-01-13T01:17:13.596Z,100.00
2023-01-13T01:19:40.358Z,100.00
2023-01-13T01:22:07.039Z,100.00
2023-01-13T01:24:33.758Z,100.00
2023-01-13T01:27:00.487Z,100.00
2023-01-13T01:29:27.270Z,100.00
2023-01-13T01:31:54.006Z,100.00
2023-01-13T01:34:20.640Z,100.00
2023-01-13T01:36:47.328Z,100.00
2023-01-13T01:39:14.131Z,100.00
2023-01-13T01:42:00.818Z,100.00
2023-01-13T01:44:42.490Z,100.00
2023-01-13T01:47:17.855Z,100.00
2023-01-13T01:49:48.816Z,100.00
2023-01-13T01:52:23.461Z,100.00
2023-01-13T01:55:05.049Z,100.00
2023-01-13T01:57:34.602Z,100.00
2023-01-13T02:00:02.249Z,100.00
2023-01-13T02:02:30.628Z,100.00
2023-01-13T02:04:58.120Z,100.00
2023-01-13T02:07:28.049Z,100.00
2023-01-13T02:09:56.860Z,100.00
2023-01-13T02:12:34.722Z,100.00
2023-01-13T02:15:07.670Z,100.00
2023-01-13T02:17:52.964Z,100.00
2023-01-13T02:20:34.856Z,100.00
2023-01-13T02:24:03.039Z,100.00
2023-01-13T02:26:45.243Z,100.00
2023-01-13T02:29:49.318Z,100.00
2023-01-13T02:32:34.044Z,100.00
2023-01-13T02:35:10.651Z,100.00
2023-01-13T02:37:40.620Z,100.00
2023-01-13T02:40:07.451Z,100.00
2023-01-13T02:42:55.197Z,100.00
2023-01-13T02:45:29.614Z,100.00
2023-01-13T02:48:00.137Z,100.00
2023-01-13T02:50:36.047Z,100.00
2023-01-13T02:53:08.684Z,100.00
2023-01-13T02:55:40.292Z,100.00
2023-01-13T02:58:10.562Z,100.00
2023-01-13T03:00:38.020Z,100.00
2023-01-13T03:03:04.628Z,100.00
2023-01-13T03:05:33.173Z,100.00
2023-01-13T03:08:11.808Z,100.00
2023-01-13T03:10:54.347Z,100.00
2023-01-13T03:13:36.027Z,100.00
2023-01-13T03:16:22.294Z,100.00
2023-01-13T03:19:07.528Z,100.00
2023-01-13T03:21:52.355Z,100.00
2023-01-13T03:24:32.512Z,100.00
2023-01-13T03:27:03.655Z,100.00
2023-01-13T03:29:41.293Z,100.00
2023-01-13T03:32:16.336Z,100.00
2023-01-13T03:34:49.805Z,100.00
2023-01-13T03:37:23.785Z,100.00
2023-01-13T03:39:57.768Z,100.00
2023-01-13T03:42:28.466Z,100.00
2023-01-13T03:45:04.434Z,100.00
2023-01-13T03:47:46.479Z,100.00
2023-01-13T03:50:19.806Z,100.00
2023-01-13T03:53:10.123Z,100.00
2023-01-13T03:55:42.306Z,100.00
2023-01-13T03:58:15.043Z,100.00
2023-01-13T04:00:52.958Z,100.00
2023-01-13T04:03:47.004Z,100.00
2023-01-13T04:06:17.049Z,100.00
2023-01-13T04:08:51.572Z,100.00
2023-01-13T04:11:26.807Z,100.00
2023-01-13T04:13:54.548Z,100.00
2023-01-13T04:16:21.297Z,100.00
2023-01-13T04:18:50.277Z,100.00
2023-01-13T04:21:16.801Z,100.00
2023-01-13T04:23:43.360Z,100.00
2023-01-13T04:26:10.070Z,100.00
2023-01-13T04:28:36.680Z,100.00
2023-01-13T04:31:03.294Z,100.00
2023-01-13T04:33:30.039Z,100.00
2023-01-13T04:35:56.669Z,100.00
2023-01-13T04:38:23.451Z,100.00
2023-01-13T04:40:50.125Z,100.00
2023-01-13T04:43:17.266Z,100.00
2023-01-13T04:45:44.475Z,100.00
2023-01-13T04:48:11.349Z,100.00
2023-01-13T04:50:38.049Z,100.00
2023-01-13T04:53:05.044Z,100.00
2023-01-13T04:55:32.080Z,100.00
2023-01-13T04:58:07.173Z,100.00
2023-01-13T05:00:34.258Z,100.00
2023-01-13T05:03:02.956Z,100.00
2023-01-13T05:05:30.624Z,100.00
2023-01-13T05:07:57.988Z,100.00
2023-01-13T05:10:24.740Z,100.00
2023-01-13T05:13:09.960Z,100.00
2023-01-13T05:15:55.297Z,100.00
2023-01-13T05:18:21.913Z,100.00
2023-01-13T05:20:49.567Z,100.00
2023-01-13T05:23:34.745Z,100.00
2023-01-13T05:26:01.311Z,100.00
2023-01-13T05:28:32.217Z,100.00
2023-01-13T05:30:58.795Z,100.00
2023-01-13T05:33:25.394Z,100.00
2023-01-13T05:35:52.180Z,100.00
2023-01-13T05:38:18.814Z,100.00
2023-01-13T05:41:11.551Z,100.00
2023-01-13T05:43:38.080Z,100.00
2023-01-13T05:46:08.088Z,100.00
2023-01-13T05:48:37.573Z,100.00
2023-01-13T05:51:15.997Z,100.00
2023-01-13T05:53:42.737Z,100.00
2023-01-13T05:56:10.337Z,100.00
2023-01-13T05:58:37.239Z,100.00
2023-01-13T06:01:06.374Z,100.00
2023-01-13T06:03:33.270Z,100.00
2023-01-13T06:06:02.133Z,100.00
2023-01-13T06:08:29.653Z,100.00
2023-01-13T06:10:56.465Z,100.00
2023-01-13T06:13:23.238Z,100.00
2023-01-13T06:15:49.846Z,100.00
2023-01-13T06:18:16.522Z,100.00
2023-01-13T06:20:43.074Z,100.00
2023-01-13T06:23:11.753Z,100.00
2023-01-13T06:25:58.709Z,100.00
2023-01-13T06:28:25.370Z,100.00
2023-01-13T06:30:57.639Z,100.00
2023-01-13T06:33:30.030Z,100.00
2023-01-13T06:36:02.354Z,100.00
2023-01-13T06:38:33.815Z,100.00
2023-01-13T06:41:00.415Z,100.00
2023-01-13T06:43:27.069Z,100.00
2023-01-13T06:45:55.834Z,100.00
2023-01-13T06:48:25.573Z,100.00
2023-01-13T06:50:52.131Z,100.00
2023-01-13T06:53:20.136Z,100.00
2023-01-13T06:55:46.760Z,100.00
2023-01-13T06:58:13.471Z,100.00
2023-01-13T07:00:40.098Z,100.00
2023-01-13T07:03:16.420Z,100.00
2023-01-13T07:05:50.707Z,100.00
2023-01-13T07:08:17.419Z,100.00
2023-01-13T07:10:43.999Z,100.00
2023-01-13T07:13:29.422Z,100.00
2023-01-13T07:15:58.145Z,100.00
2023-01-13T07:18:31.982Z,100.00
2023-01-13T07:21:12.461Z,100.00
2023-01-13T07:23:40.734Z,100.00
2023-01-13T07:26:09.377Z,100.00
2023-01-13T07:28:39.719Z,100.00
2023-01-13T07:31:14.124Z,100.00
2023-01-13T07:33:43.364Z,100.00
2023-01-13T07:36:11.163Z,100.00
2023-01-13T07:38:39.810Z,100.00
2023-01-13T07:41:25.495Z,100.00
2023-01-13T07:43:52.477Z,100.00
2023-01-13T07:46:19.330Z,100.00
2023-01-13T07:48:47.984Z,100.00
2023-01-13T07:51:14.989Z,100.00
2023-01-13T07:53:41.531Z,100.00
2023-01-13T07:56:08.518Z,100.00
2023-01-13T07:58:36.422Z,100.00
2023-01-13T08:01:15.396Z,100.00
2023-01-13T08:03:42.461Z,100.00
2023-01-13T08:06:10.520Z,100.00
2023-01-13T08:08:37.817Z,100.00
2023-01-13T08:11:06.897Z,100.00
2023-01-13T08:13:33.822Z,100.00
2023-01-13T08:16:02.826Z,100.00
2023-01-13T08:18:33.871Z,100.00
2023-01-13T08:21:08.353Z,100.00
2023-01-13T08:23:35.548Z,100.00
2023-01-13T08:26:04.655Z,100.00
2023-01-13T08:28:31.437Z,100.00
2023-01-13T08:31:02.588Z,100.00
2023-01-13T08:33:29.772Z,100.00
2023-01-13T08:35:56.745Z,100.00
2023-01-13T08:38:24.370Z,100.00
2023-01-13T08:40:51.105Z,100.00
2023-01-13T08:43:17.759Z,100.00
2023-01-13T08:45:44.838Z,100.00
2023-01-13T08:48:11.578Z,100.00
2023-01-13T08:50:38.389Z,100.00
2023-01-13T08:53:04.984Z,100.00
2023-01-13T08:55:31.609Z,100.00
2023-01-13T08:58:14.067Z,100.00
2023-01-13T09:00:42.239Z,100.00
2023-01-13T09:03:08.912Z,100.00
2023-01-13T09:05:36.997Z,100.00
2023-01-13T09:08:03.600Z,100.00
2023-01-13T09:10:30.331Z,100.00
2023-01-13T09:13:16.613Z,100.00
2023-01-13T09:15:47.458Z,100.00
2023-01-13T09:18:14.620Z,100.00
2023-01-13T09:20:41.728Z,100.00
2023-01-13T09:23:10.715Z,100.00
2023-01-13T09:25:38.297Z,100.00
2023-01-13T09:28:07.019Z,100.00
2023-01-13T09:30:34.061Z,100.00
2023-01-13T09:33:19.420Z,100.00
2023-01-13T09:35:46.183Z,100.00
2023-01-13T09:38:13.411Z,100.00
2023-01-13T09:40:44.795Z,100.00
2023-01-13T09:43:47.328Z,100.00
2023-01-13T09:46:47.645Z,100.00
2023-01-13T09:49:28.435Z,100.00
2023-01-13T09:52:03.300Z,100.00
2023-01-13T09:54:52.031Z,100.00
2023-01-13T09:57:21.327Z,100.00
2023-01-13T09:59:49.407Z,100.00
2023-01-13T10:02:37.275Z,100.00
2023-01-13T10:05:04.316Z,100.00
2023-01-13T10:07:37.384Z,100.00
2023-01-13T10:10:19.883Z,100.00
2023-01-13T10:13:12.944Z,100.00
2023-01-13T10:15:47.310Z,100.00
2023-01-13T10:18:32.861Z,100.00
2023-01-13T10:21:31.145Z,100.00
2023-01-13T10:24:07.462Z,100.00
2023-01-13T10:26:59.605Z,100.00
2023-01-13T10:29:28.824Z,100.00
2023-01-13T10:31:57.973Z,100.00
2023-01-13T10:34:29.370Z,100.00
2023-01-13T10:37:00.621Z,100.00
2023-01-13T10:39:27.636Z,100.00
2023-01-13T10:42:05.652Z,100.00
2023-01-13T10:44:32.693Z,100.00
2023-01-13T10:46:59.823Z,100.00
2023-01-13T10:49:28.353Z,100.00
2023-01-13T10:51:55.090Z,100.00
2023-01-13T10:54:24.430Z,100.00
2023-01-13T10:57:16.528Z,100.00
2023-01-13T10:59:44.039Z,100.00
2023-01-13T11:02:25.910Z,100.00
2023-01-13T11:04:53.553Z,100.00
2023-01-13T11:07:32.344Z,100.00
2023-01-13T11:10:24.414Z,100.00
2023-01-13T11:13:13.784Z,100.00
2023-01-13T11:16:05.515Z,100.00
2023-01-13T11:18:38.031Z,100.00
2023-01-13T11:21:36.900Z,100.00
2023-01-13T11:24:20.701Z,100.00
2023-01-13T11:27:13.148Z,100.00
2023-01-13T11:30:09.874Z,100.00
2023-01-13T11:32:46.111Z,100.00
2023-01-13T11:35:21.887Z,100.00
2023-01-13T11:38:03.342Z,100.00
2023-01-13T11:40:41.496Z,100.00
2023-01-13T11:43:42.629Z,100.00
2023-01-13T11:46:11.822Z,100.00
2023-01-13T11:48:42.698Z,100.00
2023-01-13T11:51:15.208Z,100.00
2023-01-13T11:54:01.028Z,100.00
2023-01-13T11:56:39.210Z,100.00
2023-01-13T11:59:16.028Z,100.00
2023-01-13T12:02:21.114Z,100.00
2023-01-13T12:05:06.761Z,100.00
2023-01-13T12:08:00.745Z,100.00
2023-01-13T12:10:48.963Z,95.48
2023-01-13T12:13:34.648Z,95.20
2023-01-13T12:16:25.129Z,92.94
2023-01-13T12:18:51.682Z,88.86
2023-01-13T12:21:28.987Z,87.65
2023-01-13T12:24:06.211Z,91.38
2023-01-13T12:26:40.838Z,95.86
2023-01-13T12:29:19.218Z,100.00
2023-01-13T12:31:48.946Z,100.00
2023-01-13T12:34:37.451Z,100.00
2023-01-13T12:37:22.730Z,100.00
2023-01-13T12:40:23.511Z,100.00
2023-01-13T12:43:18.472Z,100.00
2023-01-13T12:45:45.678Z,100.00
2023-01-13T12:48:53.125Z,99.17
2023-01-13T12:51:28.454Z,98.73
2023-01-13T12:53:56.436Z,94.71
2023-01-13T12:56:45.004Z,93.62
2023-01-13T12:59:17.642Z,91.44
2023-01-13T13:01:46.100Z,89.59
2023-01-13T13:04:17.234Z,89.91
2023-01-13T13:06:51.358Z,86.40
2023-01-13T13:09:30.037Z,87.99
2023-01-13T13:11:59.339Z,86.28
2023-01-13T13:14:37.982Z,88.71
2023-01-13T13:17:19.781Z,89.31
2023-01-13T13:19:49.178Z,92.77
2023-01-13T13:22:50.462Z,94.16
2023-01-13T13:25:23.590Z,96.53
2023-01-13T13:28:17.657Z,100.00
2023-01-13T13:30:53.910Z,100.00
2023-01-13T13:33:35.091Z,100.00
2023-01-13T13:36:35.532Z,100.00
2023-01-13T13:39:37.598Z,100.00
2023-01-13T13:42:37.062Z,100.00
2023-01-13T13:45:40.118Z,100.00
2023-01-13T13:48:34.294Z,100.00
2023-01-13T13:51:04.751Z,100.00
2023-01-13T13:53:35.709Z,100.00
2023-01-13T13:56:04.700Z,100.00
2023-01-13T13:58:35.669Z,100.00
2023-01-13T14:01:04.397Z,100.00
2023-01-13T14:03:34.616Z,100.00
2023-01-13T14:06:07.213Z,100.00
2023-01-13T14:08:37.525Z,100.00
2023-01-13T14:11:26.050Z,100.00
2023-01-13T14:14:15.388Z,100.00
2023-01-13T14:16:42.104Z,100.00
2023-01-13T14:19:33.831Z,100.00
2023-01-13T14:22:02.749Z,100.00
2023-01-13T14:24:31.344Z,100.00
2023-01-13T14:27:14.223Z,100.00
2023-01-13T14:29:41.256Z,100.00
2023-01-13T14:32:08.518Z,100.00
2023-01-13T14:34:35.987Z,100.00
2023-01-13T14:37:03.809Z,100.00
2023-01-13T14:39:38.807Z,100.00
2023-01-13T14:42:12.645Z,100.00
2023-01-13T14:44:45.220Z,100.00
2023-01-13T14:47:26.835Z,100.00
2023-01-13T14:50:05.811Z,100.00
2023-01-13T14:52:46.409Z,100.00
2023-01-13T14:55:25.310Z,100.00
2023-01-13T14:57:52.338Z,100.00
2023-01-13T15:00:24.486Z,100.00
2023-01-13T15:02:57.254Z,100.00
2023-01-13T15:05:23.954Z,100.00
2023-01-13T15:07:56.053Z,100.00
2023-01-13T15:10:33.352Z,100.00
2023-01-13T15:13:03.490Z,100.00
2023-01-13T15:15:36.462Z,100.00
2023-01-13T15:18:13.792Z,100.00
2023-01-13T15:20:41.419Z,100.00
2023-01-13T15:23:08.280Z,100.00
2023-01-13T15:25:37.245Z,100.00
2023-01-13T15:28:05.124Z,100.00
2023-01-13T15:30:32.425Z,100.00
2023-01-13T15:32:59.293Z,100.00
2023-01-13T15:35:28.184Z,100.00
2023-01-13T15:37:56.843Z,100.00
2023-01-13T15:40:30.559Z,100.00
2023-01-13T15:43:15.575Z,100.00
2023-01-13T15:46:00.940Z,100.00
2023-01-13T15:48:32.945Z,100.00
2023-01-13T15:51:00.823Z,100.00
2023-01-13T15:53:28.710Z,100.00
2023-01-13T15:55:57.887Z,100.00
2023-01-13T15:58:28.304Z,100.00
2023-01-13T16:00:55.328Z,100.00
2023-01-13T16:03:22.215Z,100.00
2023-01-13T16:05:49.262Z,100.00
2023-01-13T16:08:18.484Z,100.00
2023-01-13T16:10:46.276Z,100.00
2023-01-13T16:13:13.389Z,100.00
2023-01-13T16:15:46.563Z,100.00
2023-01-13T16:18:26.601Z,100.00
2023-01-13T16:20:59.317Z,100.00
2023-01-13T16:23:26.456Z,100.00
2023-01-13T16:25:53.696Z,100.00
2023-01-13T16:28:31.483Z,100.00
2023-01-13T16:30:59.033Z,100.00
2023-01-13T16:33:26.463Z,100.00
2023-01-13T16:36:10.674Z,100.00
2023-01-13T16:38:47.772Z,100.00
2023-01-13T16:41:18.269Z,100.00
2023-01-13T16:43:52.633Z,100.00
2023-01-13T16:46:28.492Z,100.00
2023-01-13T16:48:58.439Z,100.00
2023-01-13T16:51:25.854Z,100.00
2023-01-13T16:53:59.563Z,100.00
2023-01-13T16:56:42.625Z,100.00
2023-01-13T16:59:42.992Z,100.00
2023-01-13T17:08:05.151Z,100.00
2023-01-13T17:10:32.562Z,100.00
2023-01-13T17:13:16.037Z,100.00
2023-01-13T17:15:47.395Z,100.00
2023-01-13T17:18:14.695Z,100.00
2023-01-13T17:20:42.087Z,100.00
2023-01-13T17:23:10.305Z,100.00
2023-01-13T17:25:37.209Z,100.00
2023-01-13T17:28:03.913Z,100.00
2023-01-13T17:30:30.725Z,100.00
2023-01-13T17:32:57.296Z,100.00
2023-01-13T17:35:25.366Z,100.00
2023-01-13T17:37:53.193Z,100.00
2023-01-13T17:40:20.709Z,100.00
2023-01-13T17:42:47.963Z,100.00
2023-01-13T17:45:17.989Z,100.00
2023-01-13T17:47:47.277Z,100.00
2023-01-13T17:50:14.797Z,100.00
2023-01-13T17:52:41.828Z,100.00
2023-01-13T17:55:09.774Z,100.00
2023-01-13T17:57:43.924Z,100.00
2023-01-13T18:00:20.591Z,100.00
2023-01-13T18:02:50.740Z,100.00
2023-01-13T18:05:20.731Z,100.00
2023-01-13T18:07:48.349Z,100.00
2023-01-13T18:10:16.068Z,100.00
2023-01-13T18:12:42.866Z,100.00
2023-01-13T18:15:09.626Z,100.00
2023-01-13T18:17:36.624Z,100.00
2023-01-13T18:20:22.275Z,100.00
2023-01-13T18:23:07.545Z,100.00
2023-01-13T18:25:52.623Z,100.00
2023-01-13T18:28:20.142Z,100.00
2023-01-13T18:30:48.459Z,100.00
2023-01-13T18:33:15.368Z,100.00
2023-01-13T18:35:42.004Z,100.00
2023-01-13T18:38:09.106Z,100.00
2023-01-13T18:40:38.979Z,100.00
2023-01-13T18:43:05.620Z,100.00
2023-01-13T18:45:32.505Z,100.00
2023-01-13T18:48:01.588Z,100.00
2023-01-13T18:50:29.039Z,100.00
2023-01-13T18:52:56.158Z,100.00
2023-01-13T18:55:23.229Z,100.00
2023-01-13T18:57:51.094Z,100.00
2023-01-13T19:00:19.971Z,100.00
2023-01-13T19:02:47.668Z,100.00
2023-01-13T19:05:15.241Z,100.00
2023-01-13T19:07:46.536Z,100.00
2023-01-13T19:10:13.465Z,100.00
2023-01-13T19:12:40.183Z,100.00
2023-01-13T19:15:09.069Z,100.00
2023-01-13T19:17:35.979Z,100.00
2023-01-13T19:20:04.476Z,100.00
2023-01-13T19:22:34.470Z,100.00
2023-01-13T19:25:02.434Z,100.00
2023-01-13T19:27:29.717Z,100.00
2023-01-13T19:30:01.111Z,100.00
2023-01-13T19:32:31.137Z,100.00
2023-01-13T19:34:59.841Z,100.00
2023-01-13T19:37:34.150Z,100.00
2023-01-13T19:40:00.839Z,100.00
2023-01-13T19:43:03.563Z,100.00
2023-01-13T19:45:31.497Z,100.00
2023-01-13T19:48:05.288Z,100.00
2023-01-13T19:50:35.861Z,100.00
2023-01-13T19:53:02.463Z,100.00
2023-01-13T19:55:30.321Z,100.00
2023-01-13T19:57:56.990Z,100.00
2023-01-13T20:00:23.819Z,100.00
2023-01-13T20:02:52.992Z,100.00
2023-01-13T20:05:22.305Z,100.00
2023-01-13T20:07:50.204Z,100.00
2023-01-13T20:10:18.554Z,100.00
2023-01-13T20:12:45.176Z,100.00
2023-01-13T20:15:12.462Z,100.00
2023-01-13T20:17:40.513Z,100.00
2023-01-13T20:20:09.726Z,100.00
2023-01-13T20:22:37.835Z,100.00
2023-01-13T20:25:05.418Z,100.00
2023-01-13T20:27:32.101Z,100.00
2023-01-13T20:29:59.003Z,100.00
2023-01-13T20:32:25.855Z,100.00
2023-01-13T20:34:52.565Z,100.00
2023-01-13T20:37:19.395Z,100.00
2023-01-13T20:39:46.951Z,100.00
2023-01-13T20:42:29.164Z,100.00
2023-01-13T20:44:57.119Z,100.00
2023-01-13T20:47:23.919Z,100.00
2023-01-13T20:49:50.576Z,100.00
2023-01-13T20:52:18.116Z,100.00
2023-01-13T20:54:44.770Z,100.00
2023-01-13T20:57:12.076Z,100.00
2023-01-13T20:59:39.287Z,100.00
2023-01-13T21:02:11.077Z,100.00
2023-01-13T21:04:37.638Z,100.00
2023-01-13T21:07:04.241Z,100.00
2023-01-13T21:09:30.897Z,100.00
2023-01-13T21:12:16.674Z,100.00
2023-01-13T21:15:01.533Z,100.00
2023-01-13T21:17:46.861Z,100.00
2023-01-13T21:20:15.028Z,100.00
2023-01-13T21:22:47.494Z,100.00
2023-01-13T21:25:15.238Z,100.00
2023-01-13T21:27:44.013Z,100.00
2023-01-13T21:30:15.286Z,100.00
2023-01-13T21:32:47.296Z,100.00
2023-01-13T21:35:14.729Z,100.00
2023-01-13T21:37:43.315Z,100.00
2023-01-13T21:40:12.928Z,100.00
2023-01-13T21:42:58.870Z,100.00
2023-01-13T21:45:44.026Z,100.00
2023-01-13T21:48:10.807Z,100.00
2023-01-13T21:50:38.329Z,100.00
2023-01-13T21:53:05.712Z,100.00
2023-01-13T21:55:32.930Z,100.00
2023-01-13T21:58:11.742Z,100.00
2023-01-13T22:00:40.100Z,100.00
2023-01-13T22:03:08.670Z,100.00
2023-01-13T22:05:36.270Z,100.00
2023-01-13T22:08:03.193Z,100.00
2023-01-13T22:10:30.722Z,100.00
2023-01-13T22:13:22.012Z,100.00
2023-01-13T22:15:48.757Z,100.00
2023-01-13T22:18:15.447Z,100.00
2023-01-13T22:20:42.136Z,100.00
2023-01-13T22:23:08.818Z,100.00
2023-01-13T22:25:35.583Z,100.00
2023-01-13T22:28:06.042Z,100.00
2023-01-13T22:30:33.397Z,100.00
2023-01-13T22:33:00.551Z,100.00
2023-01-13T22:35:27.264Z,100.00
2023-01-13T22:37:53.904Z,100.00
2023-01-13T22:40:20.546Z,100.00
2023-01-13T22:42:49.974Z,100.00
2023-01-13T22:45:16.813Z,100.00
2023-01-13T22:47:52.405Z,100.00
2023-01-13T22:50:20.956Z,100.00
2023-01-13T22:52:50.275Z,100.00
2023-01-13T22:55:21.852Z,100.00
2023-01-13T22:57:55.062Z,100.00
2023-01-13T23:00:22.177Z,100.00
2023-01-13T23:02:52.445Z,100.00
2023-01-13T23:05:19.323Z,100.00
2023-01-13T23:07:46.130Z,100.00
2023-01-13T23:10:15.933Z,100.00
2023-01-13T23:12:42.605Z,100.00
2023-01-13T23:15:14.220Z,100.00
2023-01-13T23:17:40.930Z,100.00
2023-01-13T23:20:08.199Z,100.00
2023-01-13T23:22:38.597Z,100.00
2023-01-13T23:25:05.524Z,100.00
2023-01-13T23:27:32.068Z,100.00
2023-01-13T23:29:58.640Z,100.00
2023-01-13T23:32:25.158Z,100.00
2023-01-13T23:34:51.673Z,100.00
2023-01-13T23:37:18.196Z,100.00
2023-01-13T23:39:44.693Z,100.00
2023-01-13T23:42:11.176Z,100.00
2023-01-13T23:44:37.666Z,100.00
2023-01-13T23:47:04.299Z,100.00
2023-01-13T23:49:31.415Z,100.00
2023-01-13T23:51:58.359Z,100.00
2023-01-13T23:54:24.922Z,100.00
2023-01-13T23:56:52.596Z,100.00
2023-01-13T23:59:19.979Z,100.00
